Terminal Aerodrome Forecast
Issued by NWS

Home | Current Version | Previous Version | Text Only | Print | Product List | Glossary Off
Versions: 1 2 3 4 5 6 7 8 9 10 11 12 13 14 15 16 17 18 19 20 21 22 23 24 25 26 27 28

000
FTUS43 KLOT 292107 AAA
TAFORD
TAF AMD
KORD 292107Z 2921/3024 04018G24KT 4SM RA BR BKN009 OVC045
     FM292200 04020G28KT 3SM RA BR VCTS OVC009CB
     FM300300 04020G30KT 3SM -DZRA BR OVC006
     FM301500 07014KT 3SM -SHRA BR OVC006 PROB30 3019/3024 TSRA
      OVC006CB=

USA.gov is the U.S. government's official web portal to all federal, state and local government web resources and services.